sensor_id;sensor_type;location;lat;lon;timestamp;P1;durP1;ratioP1;P2;durP2;ratioP2
495;SDS011;39559;48.630;9.162;2023-04-03T00:00:58;6.20;;;5.40;;
495;SDS011;39559;48.630;9.162;2023-04-03T00:03:24;5.43;;;4.90;;
495;SDS011;39559;48.630;9.162;2023-04-03T00:05:50;6.50;;;5.53;;
495;SDS011;39559;48.630;9.162;2023-04-03T00:08:16;6.10;;;5.57;;
495;SDS011;39559;48.630;9.162;2023-04-03T00:10:42;6.30;;;5.60;;
495;SDS011;39559;48.630;9.162;2023-04-03T00:13:07;6.30;;;5.70;;
495;SDS011;39559;48.630;9.162;2023-04-03T00:15:34;6.50;;;5.57;;
495;SDS011;39559;48.630;9.162;2023-04-03T00:18:00;6.35;;;5.75;;
495;SDS011;39559;48.630;9.162;2023-04-03T00:20:27;6.03;;;5.10;;
495;SDS011;39559;48.630;9.162;2023-04-03T00:24:58;5.32;;;4.82;;
495;SDS011;39559;48.630;9.162;2023-04-03T00:27:23;6.00;;;5.50;;
495;SDS011;39559;48.630;9.162;2023-04-03T00:29:49;6.17;;;5.57;;
495;SDS011;39559;48.630;9.162;2023-04-03T00:32:14;6.87;;;6.27;;
495;SDS011;39559;48.630;9.162;2023-04-03T00:34:40;6.10;;;5.50;;
495;SDS011;39559;48.630;9.162;2023-04-03T00:37:06;6.83;;;5.27;;
495;SDS011;39559;48.630;9.162;2023-04-03T00:39:31;6.10;;;5.50;;
495;SDS011;39559;48.630;9.162;2023-04-03T00:41:57;6.22;;;5.63;;
495;SDS011;39559;48.630;9.162;2023-04-03T00:45:22;6.20;;;5.60;;
495;SDS011;39559;48.630;9.162;2023-04-03T00:48:57;6.32;;;5.57;;
495;SDS011;39559;48.630;9.162;2023-04-03T00:51:23;5.93;;;5.40;;
495;SDS011;39559;48.630;9.162;2023-04-03T00:54:00;5.90;;;5.30;;
495;SDS011;39559;48.630;9.162;2023-04-03T00:56:28;6.15;;;5.55;;
495;SDS011;39559;48.630;9.162;2023-04-03T00:59:06;6.75;;;5.60;;
495;SDS011;39559;48.630;9.162;2023-04-03T01:01:36;5.80;;;5.30;;
495;SDS011;39559;48.630;9.162;2023-04-03T01:04:03;6.70;;;5.63;;
495;SDS011;39559;48.630;9.162;2023-04-03T01:06:34;5.50;;;5.00;;
495;SDS011;39559;48.630;9.162;2023-04-03T01:09:02;6.38;;;5.78;;
495;SDS011;39559;48.630;9.162;2023-04-03T01:12:57;5.65;;;5.10;;
495;SDS011;39559;48.630;9.162;2023-04-03T01:15:26;6.00;;;5.40;;
495;SDS011;39559;48.630;9.162;2023-04-03T01:17:58;5.25;;;4.75;;
495;SDS011;39559;48.630;9.162;2023-04-03T01:25:46;5.75;;;5.20;;
495;SDS011;39559;48.630;9.162;2023-04-03T01:28:21;6.10;;;5.20;;
495;SDS011;39559;48.630;9.162;2023-04-03T01:33:42;6.30;;;5.70;;
495;SDS011;39559;48.630;9.162;2023-04-03T01:36:57;6.50;;;5.80;;
495;SDS011;39559;48.630;9.162;2023-04-03T01:39:23;6.30;;;5.55;;
495;SDS011;39559;48.630;9.162;2023-04-03T01:41:49;6.33;;;5.60;;
495;SDS011;39559;48.630;9.162;2023-04-03T01:44:14;6.17;;;5.57;;
495;SDS011;39559;48.630;9.162;2023-04-03T01:46:40;5.50;;;5.00;;
495;SDS011;39559;48.630;9.162;2023-04-03T01:49:07;5.75;;;5.20;;
495;SDS011;39559;48.630;9.162;2023-04-03T01:51:33;5.90;;;5.20;;
495;SDS011;39559;48.630;9.162;2023-04-03T01:53:58;5.57;;;5.07;;
495;SDS011;39559;48.630;9.162;2023-04-03T01:56:24;7.40;;;6.07;;
495;SDS011;39559;48.630;9.162;2023-04-03T02:00:57;8.05;;;5.72;;
495;SDS011;39559;48.630;9.162;2023-04-03T02:03:23;6.27;;;5.00;;
495;SDS011;39559;48.630;9.162;2023-04-03T02:05:49;6.70;;;5.40;;
495;SDS011;39559;48.630;9.162;2023-04-03T02:08:15;6.55;;;5.82;;
495;SDS011;39559;48.630;9.162;2023-04-03T02:10:43;8.32;;;5.88;;
495;SDS011;39559;48.630;9.162;2023-04-03T02:13:10;6.55;;;5.53;;
495;SDS011;39559;48.630;9.162;2023-04-03T02:15:39;6.00;;;5.40;;
495;SDS011;39559;48.630;9.162;2023-04-03T02:18:05;6.32;;;5.72;;
495;SDS011;39559;48.630;9.162;2023-04-03T02:20:31;6.15;;;5.55;;
495;SDS011;39559;48.630;9.162;2023-04-03T02:24:57;8.85;;;5.70;;
495;SDS011;39559;48.630;9.162;2023-04-03T02:27:23;6.00;;;5.40;;
495;SDS011;39559;48.630;9.162;2023-04-03T02:29:49;6.90;;;5.63;;
495;SDS011;39559;48.630;9.162;2023-04-03T02:32:14;8.40;;;5.40;;
495;SDS011;39559;48.630;9.162;2023-04-03T02:34:40;6.60;;;5.90;;
495;SDS011;39559;48.630;9.162;2023-04-03T02:37:05;7.13;;;5.80;;
495;SDS011;39559;48.630;9.162;2023-04-03T02:39:31;5.87;;;5.17;;
495;SDS011;39559;48.630;9.162;2023-04-03T02:41:56;7.77;;;5.87;;
495;SDS011;39559;48.630;9.162;2023-04-03T02:44:22;6.30;;;5.33;;
495;SDS011;39559;48.630;9.162;2023-04-03T02:48:57;6.10;;;5.50;;
495;SDS011;39559;48.630;9.162;2023-04-03T02:51:22;5.90;;;5.30;;
495;SDS011;39559;48.630;9.162;2023-04-03T02:53:48;6.67;;;6.00;;
495;SDS011;39559;48.630;9.162;2023-04-03T02:56:15;6.38;;;5.80;;
495;SDS011;39559;48.630;9.162;2023-04-03T02:58:40;6.30;;;5.70;;
495;SDS011;39559;48.630;9.162;2023-04-03T03:01:06;6.27;;;5.67;;
495;SDS011;39559;48.630;9.162;2023-04-03T03:03:32;6.30;;;5.67;;
495;SDS011;39559;48.630;9.162;2023-04-03T03:06:01;6.33;;;5.57;;
495;SDS011;39559;48.630;9.162;2023-04-03T03:08:34;6.80;;;6.07;;
495;SDS011;39559;48.630;9.162;2023-04-03T03:12:57;7.47;;;5.70;;
495;SDS011;39559;48.630;9.162;2023-04-03T03:15:23;7.13;;;5.67;;
495;SDS011;39559;48.630;9.162;2023-04-03T03:17:48;6.53;;;5.23;;
495;SDS011;39559;48.630;9.162;2023-04-03T03:20:14;7.90;;;6.23;;
495;SDS011;39559;48.630;9.162;2023-04-03T03:22:40;9.50;;;6.03;;
495;SDS011;39559;48.630;9.162;2023-04-03T03:25:06;6.23;;;5.60;;
495;SDS011;39559;48.630;9.162;2023-04-03T03:27:32;5.90;;;5.30;;
495;SDS011;39559;48.630;9.162;2023-04-03T03:29:58;5.67;;;5.17;;
495;SDS011;39559;48.630;9.162;2023-04-03T03:32:23;5.20;;;4.80;;
495;SDS011;39559;48.630;9.162;2023-04-03T03:36:57;5.90;;;5.40;;
495;SDS011;39559;48.630;9.162;2023-04-03T03:39:22;5.80;;;5.30;;
495;SDS011;39559;48.630;9.162;2023-04-03T03:41:48;6.80;;;6.10;;
495;SDS011;39559;48.630;9.162;2023-04-03T03:44:14;6.40;;;5.43;;
495;SDS011;39559;48.630;9.162;2023-04-03T03:46:40;6.27;;;5.67;;
495;SDS011;39559;48.630;9.162;2023-04-03T03:49:06;8.43;;;6.50;;
495;SDS011;39559;48.630;9.162;2023-04-03T03:51:31;7.07;;;5.20;;
495;SDS011;39559;48.630;9.162;2023-04-03T03:53:57;6.63;;;5.93;;
495;SDS011;39559;48.630;9.162;2023-04-03T03:56:23;6.30;;;5.67;;
495;SDS011;39559;48.630;9.162;2023-04-03T04:01:00;6.80;;;5.90;;
495;SDS011;39559;48.630;9.162;2023-04-03T04:03:27;5.70;;;5.20;;
495;SDS011;39559;48.630;9.162;2023-04-03T04:05:52;5.70;;;5.20;;
495;SDS011;39559;48.630;9.162;2023-04-03T04:08:18;6.53;;;5.87;;
495;SDS011;39559;48.630;9.162;2023-04-03T04:10:43;6.17;;;5.57;;
495;SDS011;39559;48.630;9.162;2023-04-03T04:13:09;6.83;;;5.23;;
495;SDS011;39559;48.630;9.162;2023-04-03T04:15:34;6.30;;;5.63;;
495;SDS011;39559;48.630;9.162;2023-04-03T04:18:00;6.47;;;5.77;;
495;SDS011;39559;48.630;9.162;2023-04-03T04:20:25;7.37;;;5.90;;
495;SDS011;39559;48.630;9.162;2023-04-03T04:24:57;5.85;;;5.35;;
495;SDS011;39559;48.630;9.162;2023-04-03T04:27:23;5.33;;;4.90;;
495;SDS011;39559;48.630;9.162;2023-04-03T04:29:48;5.40;;;4.90;;
495;SDS011;39559;48.630;9.162;2023-04-03T04:32:14;6.20;;;5.60;;
495;SDS011;39559;48.630;9.162;2023-04-03T04:34:40;6.77;;;5.77;;
495;SDS011;39559;48.630;9.162;2023-04-03T04:37:05;5.60;;;5.10;;
495;SDS011;39559;48.630;9.162;2023-04-03T04:39:31;5.93;;;5.33;;
495;SDS011;39559;48.630;9.162;2023-04-03T04:41:56;8.67;;;6.00;;
495;SDS011;39559;48.630;9.162;2023-04-03T04:44:22;6.00;;;5.40;;
495;SDS011;39559;48.630;9.162;2023-04-03T04:48:58;5.68;;;5.18;;
495;SDS011;39559;48.630;9.162;2023-04-03T04:51:24;6.37;;;5.57;;
495;SDS011;39559;48.630;9.162;2023-04-03T04:53:50;6.05;;;5.40;;
495;SDS011;39559;48.630;9.162;2023-04-03T04:56:15;6.00;;;5.40;;
495;SDS011;39559;48.630;9.162;2023-04-03T04:58:41;5.83;;;5.23;;
495;SDS011;39559;48.630;9.162;2023-04-03T05:01:07;6.17;;;5.57;;
495;SDS011;39559;48.630;9.162;2023-04-03T05:03:35;5.63;;;5.13;;
495;SDS011;39559;48.630;9.162;2023-04-03T05:06:01;6.78;;;5.00;;
495;SDS011;39559;48.630;9.162;2023-04-03T05:08:26;6.17;;;5.30;;
495;SDS011;39559;48.630;9.162;2023-04-03T05:12:59;6.75;;;5.38;;
495;SDS011;39559;48.630;9.162;2023-04-03T05:15:24;6.03;;;5.50;;
495;SDS011;39559;48.630;9.162;2023-04-03T05:17:50;6.70;;;5.90;;
495;SDS011;39559;48.630;9.162;2023-04-03T05:20:16;6.87;;;5.43;;
495;SDS011;39559;48.630;9.162;2023-04-03T05:22:42;5.77;;;5.07;;
495;SDS011;39559;48.630;9.162;2023-04-03T05:25:07;10.93;;;5.70;;
495;SDS011;39559;48.630;9.162;2023-04-03T05:27:33;5.97;;;5.45;;
495;SDS011;39559;48.630;9.162;2023-04-03T05:29:59;5.67;;;5.07;;
495;SDS011;39559;48.630;9.162;2023-04-03T05:32:25;5.43;;;4.93;;
495;SDS011;39559;48.630;9.162;2023-04-03T05:36:59;5.50;;;5.00;;
495;SDS011;39559;48.630;9.162;2023-04-03T05:42:50;4.90;;;4.50;;
495;SDS011;39559;48.630;9.162;2023-04-03T05:45:24;4.82;;;4.40;;
495;SDS011;39559;48.630;9.162;2023-04-03T05:48:09;7.13;;;5.00;;
495;SDS011;39559;48.630;9.162;2023-04-03T05:50:36;5.35;;;4.85;;
495;SDS011;39559;48.630;9.162;2023-04-03T05:53:07;5.25;;;4.70;;
495;SDS011;39559;48.630;9.162;2023-04-03T05:55:39;6.05;;;5.07;;
495;SDS011;39559;48.630;9.162;2023-04-03T05:58:05;5.53;;;5.03;;
495;SDS011;39559;48.630;9.162;2023-04-03T06:00:59;6.30;;;5.65;;
495;SDS011;39559;48.630;9.162;2023-04-03T06:03:26;5.55;;;5.05;;
495;SDS011;39559;48.630;9.162;2023-04-03T06:05:51;6.63;;;5.03;;
495;SDS011;39559;48.630;9.162;2023-04-03T06:08:17;5.75;;;5.20;;
495;SDS011;39559;48.630;9.162;2023-04-03T06:10:44;5.40;;;4.70;;
495;SDS011;39559;48.630;9.162;2023-04-03T06:13:09;7.47;;;5.30;;
495;SDS011;39559;48.630;9.162;2023-04-03T06:15:35;5.43;;;4.67;;
495;SDS011;39559;48.630;9.162;2023-04-03T06:21:00;4.05;;;3.65;;
495;SDS011;39559;48.630;9.162;2023-04-03T06:24:59;8.68;;;4.68;;
495;SDS011;39559;48.630;9.162;2023-04-03T06:27:25;5.47;;;4.90;;
495;SDS011;39559;48.630;9.162;2023-04-03T06:29:50;5.73;;;4.60;;
495;SDS011;39559;48.630;9.162;2023-04-03T06:32:16;5.00;;;4.60;;
495;SDS011;39559;48.630;9.162;2023-04-03T06:34:42;5.97;;;5.37;;
495;SDS011;39559;48.630;9.162;2023-04-03T06:37:14;5.30;;;4.90;;
495;SDS011;39559;48.630;9.162;2023-04-03T06:39:41;5.65;;;4.40;;
495;SDS011;39559;48.630;9.162;2023-04-03T06:42:07;5.30;;;4.80;;
495;SDS011;39559;48.630;9.162;2023-04-03T06:44:33;6.30;;;4.70;;
495;SDS011;39559;48.630;9.162;2023-04-03T06:49:00;5.15;;;4.70;;
495;SDS011;39559;48.630;9.162;2023-04-03T06:51:27;5.03;;;4.55;;
495;SDS011;39559;48.630;9.162;2023-04-03T06:53:55;6.40;;;5.07;;
495;SDS011;39559;48.630;9.162;2023-04-03T06:56:30;5.22;;;4.72;;
495;SDS011;39559;48.630;9.162;2023-04-03T06:58:56;4.90;;;4.47;;
495;SDS011;39559;48.630;9.162;2023-04-03T07:01:26;6.60;;;5.25;;
495;SDS011;39559;48.630;9.162;2023-04-03T07:03:53;7.40;;;4.60;;
495;SDS011;39559;48.630;9.162;2023-04-03T07:06:20;4.93;;;4.43;;
495;SDS011;39559;48.630;9.162;2023-04-03T07:08:45;5.93;;;5.30;;
495;SDS011;39559;48.630;9.162;2023-04-03T07:13:00;5.22;;;4.75;;
495;SDS011;39559;48.630;9.162;2023-04-03T07:15:26;9.30;;;4.87;;
495;SDS011;39559;48.630;9.162;2023-04-03T07:17:52;5.10;;;4.40;;
495;SDS011;39559;48.630;9.162;2023-04-03T07:20:18;6.60;;;5.10;;
495;SDS011;39559;48.630;9.162;2023-04-03T07:22:43;4.83;;;4.30;;
495;SDS011;39559;48.630;9.162;2023-04-03T07:28:30;5.55;;;5.03;;
495;SDS011;39559;48.630;9.162;2023-04-03T07:31:00;6.00;;;4.67;;
495;SDS011;39559;48.630;9.162;2023-04-03T07:33:28;4.95;;;4.50;;
495;SDS011;39559;48.630;9.162;2023-04-03T07:37:00;5.23;;;4.70;;
495;SDS011;39559;48.630;9.162;2023-04-03T07:39:28;5.10;;;4.60;;
495;SDS011;39559;48.630;9.162;2023-04-03T07:41:55;5.78;;;4.95;;
495;SDS011;39559;48.630;9.162;2023-04-03T07:44:21;6.43;;;4.90;;
495;SDS011;39559;48.630;9.162;2023-04-03T07:46:47;4.57;;;4.17;;
495;SDS011;39559;48.630;9.162;2023-04-03T07:49:13;5.72;;;5.13;;
495;SDS011;39559;48.630;9.162;2023-04-03T07:51:39;5.82;;;5.22;;
495;SDS011;39559;48.630;9.162;2023-04-03T07:54:06;4.90;;;4.47;;
495;SDS011;39559;48.630;9.162;2023-04-03T07:56:31;4.93;;;4.20;;
495;SDS011;39559;48.630;9.162;2023-04-03T08:01:02;5.35;;;4.80;;
495;SDS011;39559;48.630;9.162;2023-04-03T08:03:28;5.00;;;4.50;;
495;SDS011;39559;48.630;9.162;2023-04-03T08:05:53;5.43;;;4.90;;
495;SDS011;39559;48.630;9.162;2023-04-03T08:08:20;5.63;;;5.13;;
495;SDS011;39559;48.630;9.162;2023-04-03T08:11:03;8.10;;;5.13;;
495;SDS011;39559;48.630;9.162;2023-04-03T08:13:32;5.85;;;4.80;;
495;SDS011;39559;48.630;9.162;2023-04-03T08:16:07;5.00;;;4.47;;
495;SDS011;39559;48.630;9.162;2023-04-03T08:18:35;5.20;;;4.70;;
495;SDS011;39559;48.630;9.162;2023-04-03T08:21:00;6.83;;;4.63;;
495;SDS011;39559;48.630;9.162;2023-04-03T08:25:01;5.30;;;4.80;;
495;SDS011;39559;48.630;9.162;2023-04-03T08:27:27;4.93;;;4.53;;
495;SDS011;39559;48.630;9.162;2023-04-03T08:29:54;5.20;;;4.65;;
495;SDS011;39559;48.630;9.162;2023-04-03T08:32:20;5.38;;;4.88;;
495;SDS011;39559;48.630;9.162;2023-04-03T08:34:45;5.27;;;4.77;;
495;SDS011;39559;48.630;9.162;2023-04-03T08:37:11;6.40;;;5.80;;
495;SDS011;39559;48.630;9.162;2023-04-03T08:39:40;6.20;;;4.90;;
495;SDS011;39559;48.630;9.162;2023-04-03T08:49:02;5.75;;;5.25;;
495;SDS011;39559;48.630;9.162;2023-04-03T08:51:28;5.60;;;5.10;;
495;SDS011;39559;48.630;9.162;2023-04-03T08:54:01;7.20;;;6.50;;
495;SDS011;39559;48.630;9.162;2023-04-03T08:56:33;5.45;;;5.05;;
495;SDS011;39559;48.630;9.162;2023-04-03T08:59:05;5.05;;;4.65;;
495;SDS011;39559;48.630;9.162;2023-04-03T09:01:40;5.15;;;4.65;;
495;SDS011;39559;48.630;9.162;2023-04-03T09:04:11;5.63;;;5.13;;
495;SDS011;39559;48.630;9.162;2023-04-03T09:06:39;7.20;;;4.88;;
495;SDS011;39559;48.630;9.162;2023-04-03T09:13:10;5.30;;;4.72;;
495;SDS011;39559;48.630;9.162;2023-04-03T09:15:37;6.93;;;5.18;;
495;SDS011;39559;48.630;9.162;2023-04-03T09:18:05;6.10;;;4.90;;
495;SDS011;39559;48.630;9.162;2023-04-03T09:23:44;6.13;;;5.53;;
495;SDS011;39559;48.630;9.162;2023-04-03T09:26:20;5.35;;;4.80;;
495;SDS011;39559;48.630;9.162;2023-04-03T09:28:51;6.72;;;4.88;;
495;SDS011;39559;48.630;9.162;2023-04-03T09:31:27;6.65;;;5.22;;
495;SDS011;39559;48.630;9.162;2023-04-03T09:34:01;6.00;;;5.43;;
495;SDS011;39559;48.630;9.162;2023-04-03T09:37:03;6.07;;;5.40;;
495;SDS011;39559;48.630;9.162;2023-04-03T09:39:49;5.43;;;4.90;;
495;SDS011;39559;48.630;9.162;2023-04-03T09:44:53;5.72;;;5.20;;
495;SDS011;39559;48.630;9.162;2023-04-03T09:47:32;5.50;;;5.00;;
495;SDS011;39559;48.630;9.162;2023-04-03T09:52:38;4.95;;;4.55;;
495;SDS011;39559;48.630;9.162;2023-04-03T09:55:07;6.10;;;4.63;;
495;SDS011;39559;48.630;9.162;2023-04-03T09:57:55;4.95;;;4.55;;
495;SDS011;39559;48.630;9.162;2023-04-03T10:01:02;5.55;;;4.85;;
495;SDS011;39559;48.630;9.162;2023-04-03T10:03:33;5.25;;;4.75;;
495;SDS011;39559;48.630;9.162;2023-04-03T10:06:01;5.00;;;4.60;;
495;SDS011;39559;48.630;9.162;2023-04-03T10:08:33;4.95;;;4.40;;
495;SDS011;39559;48.630;9.162;2023-04-03T10:11:07;4.47;;;4.15;;
495;SDS011;39559;48.630;9.162;2023-04-03T10:13:35;4.90;;;4.50;;
495;SDS011;39559;48.630;9.162;2023-04-03T10:16:02;4.47;;;4.07;;
495;SDS011;39559;48.630;9.162;2023-04-03T10:18:44;5.20;;;4.78;;
495;SDS011;39559;48.630;9.162;2023-04-03T10:30:34;4.22;;;3.85;;
495;SDS011;39559;48.630;9.162;2023-04-03T10:35:53;5.35;;;3.90;;
495;SDS011;39559;48.630;9.162;2023-04-03T10:39:30;4.18;;;3.75;;
495;SDS011;39559;48.630;9.162;2023-04-03T10:49:05;4.85;;;3.63;;
495;SDS011;39559;48.630;9.162;2023-04-03T10:59:27;4.47;;;4.07;;
495;SDS011;39559;48.630;9.162;2023-04-03T11:02:01;3.80;;;3.50;;
495;SDS011;39559;48.630;9.162;2023-04-03T11:04:29;4.72;;;4.32;;
495;SDS011;39559;48.630;9.162;2023-04-03T11:07:04;4.63;;;3.95;;
495;SDS011;39559;48.630;9.162;2023-04-03T11:09:39;4.75;;;4.10;;
495;SDS011;39559;48.630;9.162;2023-04-03T11:13:03;4.70;;;4.20;;
495;SDS011;39559;48.630;9.162;2023-04-03T11:15:59;5.07;;;4.13;;
495;SDS011;39559;48.630;9.162;2023-04-03T11:18:39;4.40;;;4.00;;
495;SDS011;39559;48.630;9.162;2023-04-03T11:24:14;4.78;;;4.25;;
495;SDS011;39559;48.630;9.162;2023-04-03T11:26:45;4.80;;;4.30;;
495;SDS011;39559;48.630;9.162;2023-04-03T11:29:14;5.20;;;4.78;;
495;SDS011;39559;48.630;9.162;2023-04-03T11:32:01;5.78;;;4.40;;
495;SDS011;39559;48.630;9.162;2023-04-03T11:37:02;5.10;;;4.60;;
495;SDS011;39559;48.630;9.162;2023-04-03T11:39:37;4.63;;;4.22;;
495;SDS011;39559;48.630;9.162;2023-04-03T11:42:24;4.40;;;4.05;;
495;SDS011;39559;48.630;9.162;2023-04-03T11:45:16;4.50;;;4.10;;
495;SDS011;39559;48.630;9.162;2023-04-03T11:48:00;4.78;;;4.38;;
495;SDS011;39559;48.630;9.162;2023-04-03T11:50:53;4.82;;;4.43;;
495;SDS011;39559;48.630;9.162;2023-04-03T11:53:53;4.93;;;4.43;;
495;SDS011;39559;48.630;9.162;2023-04-03T12:01:10;5.47;;;4.45;;
495;SDS011;39559;48.630;9.162;2023-04-03T12:03:57;4.32;;;4.03;;
495;SDS011;39559;48.630;9.162;2023-04-03T12:12:49;5.57;;;4.95;;
495;SDS011;39559;48.630;9.162;2023-04-03T12:15:16;4.38;;;3.90;;
495;SDS011;39559;48.630;9.162;2023-04-03T12:17:48;4.20;;;3.80;;
495;SDS011;39559;48.630;9.162;2023-04-03T12:24:58;4.27;;;3.87;;
495;SDS011;39559;48.630;9.162;2023-04-03T12:28:04;4.82;;;4.00;;
495;SDS011;39559;48.630;9.162;2023-04-03T12:30:31;4.40;;;4.00;;
495;SDS011;39559;48.630;9.162;2023-04-03T12:35:30;4.10;;;3.70;;
495;SDS011;39559;48.630;9.162;2023-04-03T12:41:11;4.65;;;4.07;;
495;SDS011;39559;48.630;9.162;2023-04-03T12:43:53;4.07;;;3.55;;
495;SDS011;39559;48.630;9.162;2023-04-03T12:49:00;4.50;;;4.10;;
495;SDS011;39559;48.630;9.162;2023-04-03T12:51:40;4.20;;;3.85;;
495;SDS011;39559;48.630;9.162;2023-04-03T12:57:11;4.72;;;4.03;;
495;SDS011;39559;48.630;9.162;2023-04-03T12:59:48;3.90;;;3.50;;
495;SDS011;39559;48.630;9.162;2023-04-03T13:04:58;3.70;;;3.40;;
495;SDS011;39559;48.630;9.162;2023-04-03T13:07:31;4.55;;;3.55;;
495;SDS011;39559;48.630;9.162;2023-04-03T13:10:04;3.92;;;3.60;;
495;SDS011;39559;48.630;9.162;2023-04-03T13:13:06;4.40;;;4.00;;
495;SDS011;39559;48.630;9.162;2023-04-03T13:15:41;4.15;;;3.78;;
495;SDS011;39559;48.630;9.162;2023-04-03T13:18:32;3.75;;;3.30;;
495;SDS011;39559;48.630;9.162;2023-04-03T13:21:01;4.03;;;3.70;;
495;SDS011;39559;48.630;9.162;2023-04-03T13:23:34;3.67;;;3.40;;
495;SDS011;39559;48.630;9.162;2023-04-03T13:26:03;4.15;;;3.75;;
495;SDS011;39559;48.630;9.162;2023-04-03T13:28:31;3.67;;;3.38;;
495;SDS011;39559;48.630;9.162;2023-04-03T13:30:59;3.75;;;3.45;;
495;SDS011;39559;48.630;9.162;2023-04-03T13:33:31;4.15;;;3.75;;
495;SDS011;39559;48.630;9.162;2023-04-03T13:37:00;4.53;;;4.13;;
495;SDS011;39559;48.630;9.162;2023-04-03T13:39:33;3.90;;;3.60;;
495;SDS011;39559;48.630;9.162;2023-04-03T13:42:23;3.90;;;3.60;;
495;SDS011;39559;48.630;9.162;2023-04-03T13:45:05;5.57;;;3.90;;
495;SDS011;39559;48.630;9.162;2023-04-03T13:48:06;4.50;;;4.10;;
495;SDS011;39559;48.630;9.162;2023-04-03T13:53:53;4.35;;;3.95;;
495;SDS011;39559;48.630;9.162;2023-04-03T13:56:35;3.80;;;3.50;;
495;SDS011;39559;48.630;9.162;2023-04-03T14:04:10;4.75;;;4.07;;
495;SDS011;39559;48.630;9.162;2023-04-03T14:06:42;4.85;;;3.60;;
495;SDS011;39559;48.630;9.162;2023-04-03T14:09:08;3.83;;;3.50;;
495;SDS011;39559;48.630;9.162;2023-04-03T14:11:33;3.83;;;3.43;;
495;SDS011;39559;48.630;9.162;2023-04-03T14:14:01;4.10;;;3.60;;
495;SDS011;39559;48.630;9.162;2023-04-03T14:16:31;5.90;;;3.80;;
495;SDS011;39559;48.630;9.162;2023-04-03T14:19:02;3.80;;;3.50;;
495;SDS011;39559;48.630;9.162;2023-04-03T14:21:28;4.22;;;3.80;;
495;SDS011;39559;48.630;9.162;2023-04-03T14:24:58;6.45;;;4.00;;
495;SDS011;39559;48.630;9.162;2023-04-03T14:27:25;4.35;;;3.72;;
495;SDS011;39559;48.630;9.162;2023-04-03T14:30:05;4.40;;;3.88;;
495;SDS011;39559;48.630;9.162;2023-04-03T14:32:34;4.30;;;3.90;;
495;SDS011;39559;48.630;9.162;2023-04-03T14:35:00;4.10;;;3.80;;
495;SDS011;39559;48.630;9.162;2023-04-03T14:37:27;4.88;;;3.78;;
495;SDS011;39559;48.630;9.162;2023-04-03T14:39:56;4.20;;;3.90;;
495;SDS011;39559;48.630;9.162;2023-04-03T14:42:25;5.50;;;4.30;;
495;SDS011;39559;48.630;9.162;2023-04-03T14:44:52;4.03;;;3.70;;
495;SDS011;39559;48.630;9.162;2023-04-03T14:48:55;4.57;;;4.17;;
495;SDS011;39559;48.630;9.162;2023-04-03T14:51:21;4.15;;;3.85;;
495;SDS011;39559;48.630;9.162;2023-04-03T14:53:47;4.40;;;4.00;;
495;SDS011;39559;48.630;9.162;2023-04-03T14:56:16;4.40;;;4.00;;
495;SDS011;39559;48.630;9.162;2023-04-03T14:58:48;4.50;;;4.10;;
495;SDS011;39559;48.630;9.162;2023-04-03T15:01:16;4.35;;;3.70;;
495;SDS011;39559;48.630;9.162;2023-04-03T15:03:42;4.57;;;3.75;;
495;SDS011;39559;48.630;9.162;2023-04-03T15:06:11;4.10;;;3.70;;
495;SDS011;39559;48.630;9.162;2023-04-03T15:08:39;4.00;;;3.70;;
495;SDS011;39559;48.630;9.162;2023-04-03T15:12:56;4.15;;;3.85;;
495;SDS011;39559;48.630;9.162;2023-04-03T15:15:22;5.13;;;3.90;;
495;SDS011;39559;48.630;9.162;2023-04-03T15:17:53;4.53;;;3.90;;
495;SDS011;39559;48.630;9.162;2023-04-03T15:20:21;4.80;;;4.05;;
495;SDS011;39559;48.630;9.162;2023-04-03T15:22:49;4.95;;;4.43;;
495;SDS011;39559;48.630;9.162;2023-04-03T15:25:15;4.70;;;4.17;;
495;SDS011;39559;48.630;9.162;2023-04-03T15:27:41;4.40;;;4.00;;
495;SDS011;39559;48.630;9.162;2023-04-03T15:30:10;4.75;;;4.35;;
495;SDS011;39559;48.630;9.162;2023-04-03T15:32:39;5.35;;;4.03;;
495;SDS011;39559;48.630;9.162;2023-04-03T15:36:55;5.25;;;4.30;;
495;SDS011;39559;48.630;9.162;2023-04-03T15:39:20;4.30;;;3.90;;
495;SDS011;39559;48.630;9.162;2023-04-03T15:41:47;4.00;;;3.70;;
495;SDS011;39559;48.630;9.162;2023-04-03T15:44:13;4.13;;;3.80;;
495;SDS011;39559;48.630;9.162;2023-04-03T15:46:42;4.70;;;3.55;;
495;SDS011;39559;48.630;9.162;2023-04-03T15:49:09;4.25;;;3.67;;
495;SDS011;39559;48.630;9.162;2023-04-03T15:51:35;6.23;;;4.20;;
495;SDS011;39559;48.630;9.162;2023-04-03T15:54:00;5.57;;;3.80;;
495;SDS011;39559;48.630;9.162;2023-04-03T15:56:26;4.73;;;4.20;;
495;SDS011;39559;48.630;9.162;2023-04-03T16:00:54;4.25;;;3.88;;
495;SDS011;39559;48.630;9.162;2023-04-03T16:03:20;4.33;;;3.60;;
495;SDS011;39559;48.630;9.162;2023-04-03T16:05:47;5.00;;;3.50;;
495;SDS011;39559;48.630;9.162;2023-04-03T16:08:13;4.50;;;4.10;;
495;SDS011;39559;48.630;9.162;2023-04-03T16:10:39;3.97;;;3.60;;
495;SDS011;39559;48.630;9.162;2023-04-03T16:13:05;4.47;;;4.07;;
495;SDS011;39559;48.630;9.162;2023-04-03T16:15:31;3.93;;;3.53;;
495;SDS011;39559;48.630;9.162;2023-04-03T16:17:59;4.95;;;4.22;;
495;SDS011;39559;48.630;9.162;2023-04-03T16:20:26;4.53;;;4.13;;
495;SDS011;39559;48.630;9.162;2023-04-03T16:24:53;4.25;;;3.85;;
495;SDS011;39559;48.630;9.162;2023-04-03T16:27:19;4.57;;;3.73;;
495;SDS011;39559;48.630;9.162;2023-04-03T16:29:45;5.10;;;4.70;;
495;SDS011;39559;48.630;9.162;2023-04-03T16:32:11;3.90;;;3.60;;
495;SDS011;39559;48.630;9.162;2023-04-03T16:34:38;4.85;;;4.25;;
495;SDS011;39559;48.630;9.162;2023-04-03T16:37:05;3.42;;;3.22;;
495;SDS011;39559;48.630;9.162;2023-04-03T16:39:31;4.40;;;4.00;;
495;SDS011;39559;48.630;9.162;2023-04-03T16:41:56;4.50;;;3.70;;
495;SDS011;39559;48.630;9.162;2023-04-03T16:44:22;4.30;;;3.90;;
495;SDS011;39559;48.630;9.162;2023-04-03T16:48:52;4.47;;;4.07;;
495;SDS011;39559;48.630;9.162;2023-04-03T16:51:18;4.67;;;3.50;;
495;SDS011;39559;48.630;9.162;2023-04-03T16:53:44;4.40;;;4.00;;
495;SDS011;39559;48.630;9.162;2023-04-03T16:56:09;4.40;;;4.00;;
495;SDS011;39559;48.630;9.162;2023-04-03T16:58:35;4.30;;;3.83;;
495;SDS011;39559;48.630;9.162;2023-04-03T17:01:14;4.53;;;4.13;;
495;SDS011;39559;48.630;9.162;2023-04-03T17:03:41;4.55;;;4.03;;
495;SDS011;39559;48.630;9.162;2023-04-03T17:06:07;4.70;;;4.10;;
495;SDS011;39559;48.630;9.162;2023-04-03T17:08:33;5.20;;;3.73;;
495;SDS011;39559;48.630;9.162;2023-04-03T17:12:51;4.35;;;3.95;;
495;SDS011;39559;48.630;9.162;2023-04-03T17:15:17;3.70;;;3.40;;
495;SDS011;39559;48.630;9.162;2023-04-03T17:17:44;5.90;;;3.50;;
495;SDS011;39559;48.630;9.162;2023-04-03T17:20:09;3.83;;;3.53;;
495;SDS011;39559;48.630;9.162;2023-04-03T17:22:35;4.40;;;3.80;;
495;SDS011;39559;48.630;9.162;2023-04-03T17:25:01;4.53;;;3.88;;
495;SDS011;39559;48.630;9.162;2023-04-03T17:27:27;5.20;;;4.70;;
495;SDS011;39559;48.630;9.162;2023-04-03T17:29:53;4.30;;;3.90;;
495;SDS011;39559;48.630;9.162;2023-04-03T17:32:18;4.20;;;3.80;;
495;SDS011;39559;48.630;9.162;2023-04-03T17:36:50;4.47;;;4.07;;
495;SDS011;39559;48.630;9.162;2023-04-03T17:39:16;4.13;;;3.83;;
495;SDS011;39559;48.630;9.162;2023-04-03T17:41:42;4.33;;;3.93;;
495;SDS011;39559;48.630;9.162;2023-04-03T17:44:10;4.40;;;4.00;;
495;SDS011;39559;48.630;9.162;2023-04-03T17:46:36;3.70;;;3.40;;
495;SDS011;39559;48.630;9.162;2023-04-03T17:49:01;4.57;;;3.67;;
495;SDS011;39559;48.630;9.162;2023-04-03T17:51:29;4.78;;;4.38;;
495;SDS011;39559;48.630;9.162;2023-04-03T17:53:56;4.35;;;3.95;;
495;SDS011;39559;48.630;9.162;2023-04-03T17:56:23;4.60;;;4.00;;
495;SDS011;39559;48.630;9.162;2023-04-03T18:00:50;4.30;;;3.90;;
495;SDS011;39559;48.630;9.162;2023-04-03T18:03:16;4.20;;;3.80;;
495;SDS011;39559;48.630;9.162;2023-04-03T18:05:41;4.40;;;4.00;;
495;SDS011;39559;48.630;9.162;2023-04-03T18:08:07;5.87;;;3.73;;
495;SDS011;39559;48.630;9.162;2023-04-03T18:10:34;5.43;;;4.23;;
495;SDS011;39559;48.630;9.162;2023-04-03T18:13:01;4.50;;;4.10;;